Terminal Aerodrome Forecast
Issued by NWS Medford, OR

Home | Current Version | Previous Version | Text Only | Print | Product List | Glossary On
Versions: 1 2 3 4 5 6 7 8 9 10 11 12 13 14 15 16 17 18 19 20 21 22 23 24 25 26 27
000
FTUS46 KMFR 240528
TAFMFR
TAF
KMFR 240528Z 2406/2506 00000KT P6SM SCT050
      TEMPO 2406/2409 BKN050
     FM242200 32005KT P6SM VCSH BKN040 OVC060
     FM250100 09004KT P6SM -SHRASN OVC050
     FM250400 17003KT P6SM -SN OVC050=

USA.gov is the U.S. government's official web portal to all federal, state and local government web resources and services.